createdAt,value
2023-05-09T00:01:07.532Z,6.60
2023-05-09T00:03:35.948Z,6.60
2023-05-09T00:06:04.364Z,6.60
2023-05-09T00:08:32.861Z,6.50
2023-05-09T00:11:01.201Z,6.50
2023-05-09T00:13:31.106Z,6.50
2023-05-09T00:15:59.577Z,6.50
2023-05-09T00:18:28.464Z,6.40
2023-05-09T00:20:56.743Z,6.40
2023-05-09T00:23:25.399Z,6.30
2023-05-09T00:25:53.710Z,6.30
2023-05-09T00:28:22.293Z,6.30
2023-05-09T00:30:51.984Z,6.30
2023-05-09T00:33:20.794Z,6.30
2023-05-09T00:35:48.963Z,6.30
2023-05-09T00:38:17.459Z,6.20
2023-05-09T00:40:45.602Z,6.30
2023-05-09T00:43:14.075Z,6.20
2023-05-09T00:45:42.343Z,6.10
2023-05-09T00:48:12.299Z,6.20
2023-05-09T00:50:40.652Z,6.20
2023-05-09T00:53:09.752Z,6.20
2023-05-09T00:55:37.987Z,6.20
2023-05-09T00:58:06.443Z,6.20
2023-05-09T01:00:34.653Z,6.20
2023-05-09T01:03:03.912Z,6.20
2023-05-09T01:05:43.163Z,6.20
2023-05-09T01:08:18.991Z,6.20
2023-05-09T01:10:55.528Z,6.20
2023-05-09T01:13:28.625Z,6.10
2023-05-09T01:16:06.192Z,6.10
2023-05-09T01:18:41.377Z,6.10
2023-05-09T01:21:16.940Z,6.00
2023-05-09T01:24:03.894Z,6.00
2023-05-09T01:26:45.131Z,6.00
2023-05-09T01:29:35.483Z,6.00
2023-05-09T01:32:06.322Z,6.00
2023-05-09T01:34:36.074Z,6.00
2023-05-09T01:37:06.578Z,6.00
2023-05-09T01:39:37.485Z,6.00
2023-05-09T01:42:09.068Z,5.90
2023-05-09T01:44:41.189Z,5.90
2023-05-09T01:47:10.830Z,5.90
2023-05-09T01:49:40.963Z,5.90
2023-05-09T01:52:12.611Z,5.90
2023-05-09T01:54:42.752Z,5.90
2023-05-09T01:57:13.188Z,5.90
2023-05-09T01:59:45.585Z,5.80
2023-05-09T02:02:14.817Z,5.80
2023-05-09T02:04:45.218Z,5.80
2023-05-09T02:07:14.522Z,5.80
2023-05-09T02:09:43.071Z,5.80
2023-05-09T02:12:11.273Z,5.80
2023-05-09T02:14:39.864Z,5.80
2023-05-09T02:17:16.969Z,5.70
2023-05-09T02:19:46.019Z,5.70
2023-05-09T02:22:15.945Z,5.70
2023-05-09T02:24:45.565Z,5.70
2023-05-09T02:27:15.647Z,5.70
2023-05-09T02:29:46.955Z,5.70
2023-05-09T02:32:17.951Z,5.60
2023-05-09T02:34:47.582Z,5.60
2023-05-09T02:37:16.460Z,5.50
2023-05-09T02:39:45.474Z,5.60
2023-05-09T02:42:17.002Z,5.50
2023-05-09T02:44:45.378Z,5.50
2023-05-09T02:47:13.712Z,5.50
2023-05-09T02:49:43.560Z,5.50
2023-05-09T02:52:12.109Z,5.60
2023-05-09T02:54:40.884Z,5.50
2023-05-09T02:57:09.095Z,5.60
2023-05-09T02:59:37.581Z,5.50
2023-05-09T03:02:06.524Z,5.50
2023-05-09T03:04:35.430Z,5.60
2023-05-09T03:07:05.182Z,5.60
2023-05-09T03:09:33.715Z,5.60
2023-05-09T03:12:02.506Z,5.60
2023-05-09T03:14:31.453Z,5.60
2023-05-09T03:16:59.677Z,5.60
2023-05-09T03:19:28.279Z,5.70
2023-05-09T03:21:56.495Z,5.70
2023-05-09T03:24:28.210Z,5.70
2023-05-09T03:26:56.382Z,5.80
2023-05-09T03:29:25.995Z,5.80
2023-05-09T03:31:54.285Z,5.90
2023-05-09T03:34:22.854Z,6.00
2023-05-09T03:36:51.124Z,6.10
2023-05-09T03:39:19.602Z,6.20
2023-05-09T03:41:49.232Z,6.30
2023-05-09T03:44:17.730Z,6.40
2023-05-09T03:46:46.299Z,6.60
2023-05-09T03:49:14.835Z,6.60
2023-05-09T03:51:43.016Z,6.80
2023-05-09T03:54:11.726Z,6.90
2023-05-09T03:56:39.871Z,7.10
2023-05-09T03:59:09.641Z,7.20
2023-05-09T04:01:40.019Z,7.40
2023-05-09T04:04:08.752Z,7.60
2023-05-09T04:06:37.933Z,7.80
2023-05-09T04:09:06.863Z,7.90
2023-05-09T04:11:35.042Z,8.10
2023-05-09T04:14:07.068Z,8.20
2023-05-09T04:16:36.899Z,8.40
2023-05-09T04:19:07.184Z,8.60
2023-05-09T04:21:35.564Z,8.80
2023-05-09T04:24:04.115Z,9.00
2023-05-09T04:26:32.444Z,9.20
2023-05-09T04:29:01.087Z,9.40
2023-05-09T04:31:29.353Z,9.60
2023-05-09T04:33:59.372Z,9.80
2023-05-09T04:36:28.983Z,10.00
2023-05-09T04:38:57.545Z,10.30
2023-05-09T04:41:25.693Z,10.40
2023-05-09T04:43:54.116Z,10.60
2023-05-09T04:46:25.021Z,10.80
2023-05-09T04:48:54.284Z,11.00
2023-05-09T04:51:23.857Z,11.20
2023-05-09T04:53:52.341Z,11.40
2023-05-09T04:56:20.515Z,11.50
2023-05-09T04:58:49.157Z,11.70
2023-05-09T05:01:17.720Z,11.70
2023-05-09T05:03:46.476Z,11.80
2023-05-09T05:06:14.683Z,11.90
2023-05-09T05:08:45.047Z,12.00
2023-05-09T05:11:18.345Z,12.20
2023-05-09T05:13:48.651Z,12.40
2023-05-09T05:16:22.654Z,12.60
2023-05-09T05:18:54.231Z,12.80
2023-05-09T05:21:30.201Z,13.00
2023-05-09T05:24:00.321Z,13.40
2023-05-09T05:26:29.075Z,13.70
2023-05-09T05:28:57.614Z,13.90
2023-05-09T05:31:25.885Z,14.20
2023-05-09T05:33:54.487Z,14.40
2023-05-09T05:36:22.710Z,14.60
2023-05-09T05:38:51.604Z,14.70
2023-05-09T05:41:21.264Z,14.80
2023-05-09T05:43:50.116Z,15.00
2023-05-09T05:46:19.404Z,15.30
2023-05-09T05:48:47.975Z,15.50
2023-05-09T05:51:16.279Z,15.60
2023-05-09T05:53:45.578Z,15.90
2023-05-09T05:56:13.800Z,16.10
2023-05-09T05:58:43.618Z,16.30
2023-05-09T06:01:12.194Z,16.60
2023-05-09T06:03:40.863Z,16.80
2023-05-09T06:06:09.262Z,16.80
2023-05-09T06:08:37.775Z,16.80
2023-05-09T06:11:06.076Z,16.90
2023-05-09T06:13:34.605Z,17.00
2023-05-09T06:16:18.498Z,17.10
2023-05-09T06:18:48.304Z,17.20
2023-05-09T06:21:16.604Z,17.40
2023-05-09T06:23:57.866Z,17.60
2023-05-09T06:26:33.124Z,17.80
2023-05-09T06:29:01.629Z,17.70
2023-05-09T06:31:31.357Z,17.90
2023-05-09T06:33:59.854Z,18.00
2023-05-09T06:36:28.083Z,18.20
2023-05-09T06:38:56.553Z,18.40
2023-05-09T06:41:24.961Z,18.70
2023-05-09T06:43:53.587Z,18.80
2023-05-09T06:46:21.834Z,19.00
2023-05-09T06:48:51.848Z,19.10
2023-05-09T06:51:20.168Z,19.20
2023-05-09T06:53:48.750Z,19.40
2023-05-09T06:56:20.169Z,19.60
2023-05-09T06:58:48.865Z,19.90
2023-05-09T07:01:17.678Z,20.00
2023-05-09T07:03:47.576Z,20.00
2023-05-09T07:06:17.624Z,20.20
2023-05-09T07:08:46.154Z,20.40
2023-05-09T07:11:14.387Z,20.40
2023-05-09T07:13:42.852Z,20.40
2023-05-09T07:16:11.047Z,20.30
2023-05-09T07:18:39.630Z,20.10
2023-05-09T07:21:08.032Z,20.10
2023-05-09T07:23:37.922Z,20.10
2023-05-09T07:26:06.176Z,20.30
2023-05-09T07:28:34.777Z,20.40
2023-05-09T07:31:03.426Z,20.40
2023-05-09T07:33:31.879Z,20.50
2023-05-09T07:36:00.395Z,20.70
2023-05-09T07:38:28.855Z,20.90
2023-05-09T07:40:58.532Z,21.30
2023-05-09T07:43:27.346Z,21.50
2023-05-09T07:45:55.894Z,21.60
2023-05-09T07:48:24.393Z,21.50
2023-05-09T07:50:52.615Z,21.50
2023-05-09T07:53:21.153Z,21.60
2023-05-09T07:55:50.368Z,21.70
2023-05-09T07:58:20.334Z,21.70
2023-05-09T08:00:48.606Z,21.70
2023-05-09T08:03:17.645Z,21.60
2023-05-09T08:05:45.920Z,21.60
2023-05-09T08:08:14.492Z,21.60
2023-05-09T08:10:42.644Z,21.90
2023-05-09T08:13:11.189Z,22.20
2023-05-09T08:15:40.962Z,22.40
2023-05-09T08:18:09.742Z,22.30
2023-05-09T08:20:37.980Z,22.10
2023-05-09T08:23:06.715Z,22.00
2023-05-09T08:25:34.932Z,21.90
2023-05-09T08:28:03.373Z,21.70
2023-05-09T08:30:31.639Z,21.70
2023-05-09T08:33:01.458Z,21.60
2023-05-09T08:35:30.062Z,21.60
2023-05-09T08:37:58.601Z,21.70
2023-05-09T08:40:26.861Z,21.70
2023-05-09T08:42:56.191Z,21.60
2023-05-09T08:45:30.335Z,21.40
2023-05-09T08:47:59.922Z,21.30
2023-05-09T08:50:29.810Z,21.20
2023-05-09T08:52:58.563Z,21.10
2023-05-09T08:55:27.723Z,20.90
2023-05-09T08:57:56.623Z,20.70
2023-05-09T09:00:26.354Z,20.80
2023-05-09T09:02:56.292Z,20.80
2023-05-09T09:05:39.974Z,20.80
2023-05-09T09:08:12.364Z,20.90
2023-05-09T09:10:43.530Z,20.90
2023-05-09T09:13:13.765Z,20.70
2023-05-09T09:15:44.307Z,20.60
2023-05-09T09:18:22.012Z,20.50
2023-05-09T09:20:54.117Z,20.40
2023-05-09T09:23:27.163Z,20.30
2023-05-09T09:26:00.279Z,20.30
2023-05-09T09:28:29.549Z,20.20
2023-05-09T09:30:58.132Z,20.20
2023-05-09T09:33:27.888Z,20.00
2023-05-09T09:35:58.072Z,19.80
2023-05-09T09:38:28.061Z,19.60
2023-05-09T09:40:57.090Z,19.60
2023-05-09T09:43:29.167Z,19.60
2023-05-09T09:45:58.428Z,19.70
2023-05-09T09:48:27.559Z,19.70
2023-05-09T09:50:57.031Z,19.70
2023-05-09T09:53:30.729Z,19.60
2023-05-09T09:55:58.912Z,19.50
2023-05-09T09:58:27.743Z,19.40
2023-05-09T10:01:07.082Z,19.30
2023-05-09T10:03:39.795Z,19.30
2023-05-09T10:06:11.695Z,19.30
2023-05-09T10:08:41.883Z,19.30
2023-05-09T10:11:10.930Z,19.20
2023-05-09T10:13:39.892Z,19.10
2023-05-09T10:16:10.739Z,19.10
2023-05-09T10:18:40.596Z,19.10
2023-05-09T10:21:12.426Z,19.10
2023-05-09T10:23:46.705Z,19.10
2023-05-09T10:26:19.222Z,19.00
2023-05-09T10:28:49.955Z,18.90
2023-05-09T10:31:26.520Z,18.80
2023-05-09T10:33:56.508Z,18.80
2023-05-09T10:36:25.096Z,18.80
2023-05-09T10:38:56.505Z,18.80
2023-05-09T10:41:25.781Z,18.80
2023-05-09T10:43:56.605Z,18.90
2023-05-09T10:46:25.552Z,18.90
2023-05-09T10:48:57.501Z,19.00
2023-05-09T10:51:26.064Z,19.10
2023-05-09T10:53:57.928Z,19.00
2023-05-09T10:56:29.786Z,19.00
2023-05-09T10:58:58.484Z,19.00
2023-05-09T11:01:35.427Z,19.00
2023-05-09T11:04:11.604Z,19.10
2023-05-09T11:06:49.369Z,19.10
2023-05-09T11:09:33.089Z,19.00
2023-05-09T11:12:12.664Z,19.00
2023-05-09T11:14:44.640Z,18.90
2023-05-09T11:17:14.153Z,19.00
2023-05-09T11:19:59.269Z,19.00
2023-05-09T11:22:30.738Z,18.90
2023-05-09T11:25:06.051Z,18.80
2023-05-09T11:27:43.636Z,18.80
2023-05-09T11:30:14.833Z,18.70
2023-05-09T11:32:46.287Z,18.70
2023-05-09T11:35:17.624Z,18.80
2023-05-09T11:37:48.287Z,18.80
2023-05-09T11:40:19.210Z,18.80
2023-05-09T11:42:48.635Z,18.70
2023-05-09T11:45:18.608Z,18.70
2023-05-09T11:47:48.153Z,18.60
2023-05-09T11:50:18.485Z,18.60
2023-05-09T11:52:47.631Z,18.60
2023-05-09T11:55:19.880Z,18.50
2023-05-09T11:57:49.877Z,18.50
2023-05-09T12:00:19.767Z,18.50
2023-05-09T12:02:49.162Z,18.40
2023-05-09T12:05:20.006Z,18.40
2023-05-09T12:07:48.975Z,18.40
2023-05-09T12:10:22.000Z,18.30
2023-05-09T12:12:51.536Z,18.40
2023-05-09T12:15:21.505Z,18.40
2023-05-09T12:18:02.325Z,18.40
2023-05-09T12:20:42.012Z,18.40
2023-05-09T12:23:11.701Z,18.40
2023-05-09T12:25:41.870Z,18.40
2023-05-09T12:28:10.921Z,18.30
2023-05-09T12:30:39.804Z,18.20
2023-05-09T12:33:10.520Z,18.30
2023-05-09T12:35:40.434Z,18.30
2023-05-09T12:38:08.777Z,18.20
2023-05-09T12:40:37.305Z,18.20
2023-05-09T12:43:08.313Z,18.10
2023-05-09T12:45:39.655Z,18.10
2023-05-09T12:48:09.555Z,18.10
2023-05-09T12:50:38.088Z,18.00
2023-05-09T12:53:07.004Z,18.10
2023-05-09T12:55:41.539Z,18.10
2023-05-09T12:58:11.497Z,18.00
2023-05-09T13:00:44.298Z,18.00
2023-05-09T13:03:25.238Z,17.90
2023-05-09T13:05:58.648Z,17.90
2023-05-09T13:08:27.252Z,17.80
2023-05-09T13:11:07.798Z,17.80
2023-05-09T13:13:45.018Z,17.80
2023-05-09T13:16:16.697Z,17.90
2023-05-09T13:18:46.306Z,17.90
2023-05-09T13:21:14.817Z,18.00
2023-05-09T13:23:44.580Z,17.90
2023-05-09T13:26:13.129Z,17.90
2023-05-09T13:28:41.391Z,17.90
2023-05-09T13:31:11.266Z,17.90
2023-05-09T13:33:39.724Z,17.90
2023-05-09T13:36:08.635Z,17.90
2023-05-09T13:38:40.435Z,17.80
2023-05-09T13:41:12.253Z,17.90
2023-05-09T13:43:42.628Z,17.90
2023-05-09T13:46:12.725Z,17.80
2023-05-09T13:48:41.920Z,17.90
2023-05-09T13:51:11.234Z,18.00
2023-05-09T13:53:40.108Z,18.00
2023-05-09T13:56:09.595Z,18.00
2023-05-09T13:58:37.853Z,18.00
2023-05-09T14:01:07.678Z,18.00
2023-05-09T14:03:37.444Z,18.00
2023-05-09T14:06:06.212Z,18.00
2023-05-09T14:08:34.582Z,17.90
2023-05-09T14:11:03.203Z,17.90
2023-05-09T14:13:32.107Z,17.90
2023-05-09T14:16:00.834Z,17.90
2023-05-09T14:18:29.108Z,17.90
2023-05-09T14:20:59.051Z,17.90
2023-05-09T14:23:27.275Z,18.00
2023-05-09T14:25:55.847Z,18.00
2023-05-09T14:28:24.119Z,17.90
2023-05-09T14:30:52.913Z,18.00
2023-05-09T14:33:21.295Z,18.00
2023-05-09T14:35:49.818Z,18.00
2023-05-09T14:38:19.896Z,18.00
2023-05-09T14:40:49.421Z,18.00
2023-05-09T14:43:17.613Z,18.10
2023-05-09T14:45:46.062Z,18.00
2023-05-09T14:48:16.045Z,18.00
2023-05-09T14:50:44.790Z,17.90
2023-05-09T14:53:15.061Z,17.90
2023-05-09T14:55:44.983Z,17.80
2023-05-09T14:58:16.050Z,17.80
2023-05-09T15:00:45.197Z,17.80
2023-05-09T15:03:13.460Z,17.80
2023-05-09T15:05:42.594Z,17.80
2023-05-09T15:08:10.818Z,17.70
2023-05-09T15:10:39.770Z,17.60
2023-05-09T15:13:09.410Z,17.60
2023-05-09T15:15:39.584Z,17.60
2023-05-09T15:18:11.334Z,17.60
2023-05-09T15:20:39.976Z,17.60
2023-05-09T15:23:08.639Z,17.60
2023-05-09T15:25:37.233Z,17.50
2023-05-09T15:28:05.495Z,17.50
2023-05-09T15:30:38.171Z,17.50
2023-05-09T15:33:07.218Z,17.50
2023-05-09T15:35:36.066Z,17.50
2023-05-09T15:38:04.344Z,17.50
2023-05-09T15:40:32.829Z,17.50
2023-05-09T15:43:07.959Z,17.50
2023-05-09T15:45:38.843Z,17.40
2023-05-09T15:48:07.501Z,17.30
2023-05-09T15:50:36.001Z,17.40
2023-05-09T15:53:04.151Z,17.30
2023-05-09T15:55:33.220Z,17.30
2023-05-09T15:58:01.606Z,17.30
2023-05-09T16:00:30.861Z,17.20
2023-05-09T16:03:00.508Z,17.20
2023-05-09T16:05:29.105Z,17.20
2023-05-09T16:07:57.444Z,17.20
2023-05-09T16:10:26.157Z,17.20
2023-05-09T16:12:54.515Z,17.20
2023-05-09T16:15:23.222Z,17.10
2023-05-09T16:17:51.549Z,17.10
2023-05-09T16:20:21.963Z,17.10
2023-05-09T16:22:50.309Z,17.10
2023-05-09T16:25:19.198Z,17.10
2023-05-09T16:27:47.440Z,17.10
2023-05-09T16:30:17.288Z,17.00
2023-05-09T16:32:45.829Z,17.10
2023-05-09T16:35:14.474Z,17.10
2023-05-09T16:37:44.419Z,17.00
2023-05-09T16:40:14.184Z,17.00
2023-05-09T16:42:43.003Z,17.00
2023-05-09T16:45:12.255Z,17.00
2023-05-09T16:47:40.466Z,17.00
2023-05-09T16:50:10.584Z,16.90
2023-05-09T16:52:41.700Z,16.90
2023-05-09T16:55:11.715Z,16.80
2023-05-09T16:57:39.983Z,16.90
2023-05-09T17:00:09.933Z,16.80
2023-05-09T17:02:38.601Z,16.80
2023-05-09T17:05:08.035Z,16.70
2023-05-09T17:07:36.418Z,16.70
2023-05-09T17:10:05.210Z,16.60
2023-05-09T17:12:35.242Z,16.70
2023-05-09T17:15:03.721Z,16.60
2023-05-09T17:17:31.907Z,16.60
2023-05-09T17:20:01.033Z,16.60
2023-05-09T17:22:29.447Z,16.50
2023-05-09T17:24:58.038Z,16.50
2023-05-09T17:27:27.189Z,16.50
2023-05-09T17:29:57.235Z,16.50
2023-05-09T17:32:25.597Z,16.40
2023-05-09T17:34:54.474Z,16.40
2023-05-09T17:37:22.671Z,16.30
2023-05-09T17:39:51.622Z,16.30
2023-05-09T17:42:19.824Z,16.20
2023-05-09T17:44:48.266Z,16.20
2023-05-09T17:47:17.924Z,16.20
2023-05-09T17:49:46.489Z,16.10
2023-05-09T17:52:14.743Z,16.10
2023-05-09T17:54:43.764Z,16.00
2023-05-09T17:57:11.975Z,16.00
2023-05-09T17:59:41.509Z,15.90
2023-05-09T18:02:10.764Z,15.90
2023-05-09T18:04:40.790Z,15.90
2023-05-09T18:07:09.792Z,15.80
2023-05-09T18:09:38.363Z,15.70
2023-05-09T18:12:06.984Z,15.70
2023-05-09T18:14:35.811Z,15.60
2023-05-09T18:17:03.994Z,15.60
2023-05-09T18:19:33.955Z,15.50
2023-05-09T18:22:04.111Z,15.50
2023-05-09T18:24:32.592Z,15.40
2023-05-09T18:27:03.073Z,15.30
2023-05-09T18:29:31.543Z,15.30
2023-05-09T18:31:59.753Z,15.20
2023-05-09T18:34:28.353Z,15.10
2023-05-09T18:36:57.252Z,15.10
2023-05-09T18:39:27.300Z,15.00
2023-05-09T18:41:55.956Z,14.90
2023-05-09T18:44:24.735Z,14.80
2023-05-09T18:46:53.871Z,14.80
2023-05-09T18:49:22.626Z,14.70
2023-05-09T18:51:50.811Z,14.60
2023-05-09T18:54:19.317Z,14.50
2023-05-09T18:56:49.642Z,14.50
2023-05-09T18:59:18.230Z,14.40
2023-05-09T19:01:46.494Z,14.30
2023-05-09T19:04:17.367Z,14.20
2023-05-09T19:06:45.780Z,14.20
2023-05-09T19:09:14.352Z,14.10
2023-05-09T19:11:42.570Z,14.10
2023-05-09T19:14:12.451Z,13.90
2023-05-09T19:16:40.685Z,13.90
2023-05-09T19:19:09.735Z,13.90
2023-05-09T19:24:23.981Z,13.70
2023-05-09T19:26:52.107Z,13.70
2023-05-09T19:29:21.903Z,13.60
2023-05-09T19:31:50.168Z,13.60
2023-05-09T19:34:18.645Z,13.50
2023-05-09T19:36:46.848Z,13.40
2023-05-09T19:39:15.333Z,13.30
2023-05-09T19:41:43.533Z,13.30
2023-05-09T19:44:11.989Z,13.20
2023-05-09T19:46:45.153Z,13.20
2023-05-09T19:49:17.182Z,13.20
2023-05-09T19:51:46.123Z,13.20
2023-05-09T19:54:15.275Z,13.10
2023-05-09T19:56:43.511Z,13.00
2023-05-09T19:59:12.080Z,13.00
2023-05-09T20:01:41.913Z,13.00
2023-05-09T20:04:10.578Z,12.90
2023-05-09T20:06:50.705Z,12.80
2023-05-09T20:09:21.015Z,12.80
2023-05-09T20:11:49.245Z,12.70
2023-05-09T20:14:18.508Z,12.70
2023-05-09T20:16:48.004Z,12.60
2023-05-09T20:19:16.730Z,12.60
2023-05-09T20:21:45.185Z,12.60
2023-05-09T20:24:13.648Z,12.60
2023-05-09T20:26:43.034Z,12.60
2023-05-09T20:29:11.517Z,12.50
2023-05-09T20:31:39.832Z,12.50
2023-05-09T20:34:13.679Z,12.50
2023-05-09T20:36:42.906Z,12.40
2023-05-09T20:39:13.276Z,12.40
2023-05-09T20:41:41.530Z,12.30
2023-05-09T20:44:10.615Z,12.20
2023-05-09T20:46:40.335Z,12.20
2023-05-09T20:49:10.268Z,12.10
2023-05-09T20:51:39.182Z,12.10
2023-05-09T20:54:07.992Z,12.00
2023-05-09T20:56:36.293Z,11.90
2023-05-09T20:59:04.930Z,11.80
2023-05-09T21:01:35.613Z,11.80
2023-05-09T21:04:05.912Z,11.80
2023-05-09T21:06:35.628Z,11.70
2023-05-09T21:09:05.324Z,11.60
2023-05-09T21:11:33.548Z,11.50
2023-05-09T21:14:02.053Z,11.50
2023-05-09T21:16:30.296Z,11.50
2023-05-09T21:19:02.411Z,11.40
2023-05-09T21:21:31.536Z,11.30
2023-05-09T21:24:03.293Z,11.30
2023-05-09T21:26:31.787Z,11.20
2023-05-09T21:29:00.262Z,11.10
2023-05-09T21:31:28.520Z,11.10
2023-05-09T21:33:57.025Z,11.00
2023-05-09T21:36:25.202Z,11.00
2023-05-09T21:38:53.646Z,11.00
2023-05-09T21:41:23.147Z,10.90
2023-05-09T21:43:52.599Z,10.90
2023-05-09T21:46:20.956Z,10.90
2023-05-09T21:48:49.440Z,10.90
2023-05-09T21:51:17.628Z,10.90
2023-05-09T21:53:46.488Z,10.90
2023-05-09T21:56:14.806Z,10.90
2023-05-09T21:58:44.608Z,10.80
2023-05-09T22:01:12.852Z,10.80
2023-05-09T22:03:41.515Z,10.80
2023-05-09T22:06:09.846Z,10.80
2023-05-09T22:08:38.346Z,10.70
2023-05-09T22:11:07.749Z,10.70
2023-05-09T22:13:36.973Z,10.70
2023-05-09T22:16:07.161Z,10.60
2023-05-09T22:18:35.664Z,10.60
2023-05-09T22:21:03.951Z,10.60
2023-05-09T22:23:32.479Z,10.60
2023-05-09T22:26:00.732Z,10.60
2023-05-09T22:28:29.351Z,10.50
2023-05-09T22:30:57.664Z,10.50
2023-05-09T22:33:27.714Z,10.50
2023-05-09T22:35:55.925Z,10.50
2023-05-09T22:38:24.548Z,10.50
2023-05-09T22:40:52.812Z,10.50
2023-05-09T22:43:21.360Z,10.40
2023-05-09T22:45:49.622Z,10.40
2023-05-09T22:48:18.104Z,10.40
2023-05-09T22:50:47.724Z,10.40
2023-05-09T22:53:16.460Z,10.40
2023-05-09T22:55:44.651Z,10.40
2023-05-09T22:58:13.163Z,10.40
2023-05-09T23:00:41.431Z,10.40
2023-05-09T23:03:09.966Z,10.40
2023-05-09T23:05:38.253Z,10.40
2023-05-09T23:08:08.127Z,10.40
2023-05-09T23:10:36.331Z,10.40
2023-05-09T23:13:05.137Z,10.40
2023-05-09T23:15:33.516Z,10.40
2023-05-09T23:18:02.036Z,10.40
2023-05-09T23:20:30.463Z,10.40
2023-05-09T23:22:58.905Z,10.40
2023-05-09T23:25:28.506Z,10.40
2023-05-09T23:27:57.208Z,10.40
2023-05-09T23:30:25.469Z,10.40
2023-05-09T23:32:53.937Z,10.40
2023-05-09T23:35:22.313Z,10.40
2023-05-09T23:37:50.905Z,10.40
2023-05-09T23:40:19.313Z,10.40
2023-05-09T23:42:49.110Z,10.40
2023-05-09T23:45:17.264Z,10.40
2023-05-09T23:47:45.782Z,10.40
2023-05-09T23:50:14.290Z,10.40
2023-05-09T23:52:43.186Z,10.40
2023-05-09T23:55:11.589Z,10.40
2023-05-09T23:57:40.072Z,10.40
